Time;durP1;ratioP1;P1;durP2;ratioP2;P2;SDS_P1;SDS_P2;PMS_P1;PMS_P2;Temp;Humidity;BMP_temperature;BMP_pressure;BME280_temperature;BME280_humidity;BME280_pressure;Samples;Min_cycle;Max_cycle;Signal;HPM_P1;HPM_P2
2022/03/10 00:02:20;;;;;;;;;;;1.50;99.90;;;;;;4755896;30;20013;-76
2022/03/10 00:04:45;;;;;;;;;;;1.40;99.90;;;;;;4770629;30;19926;-76
2022/03/10 00:07:11;;;;;;;;;;;1.30;99.90;;;;;;4770341;30;20289;-76
2022/03/10 00:09:36;;;;;;;;;;;1.30;99.90;;;;;;4770368;30;20008;-76
2022/03/10 00:12:02;;;;;;;;;;;1.20;99.90;;;;;;4770404;30;19929;-76
2022/03/10 00:14:27;;;;;;;;;;;1.20;99.90;;;;;;4770395;30;19921;-76
2022/03/10 00:16:53;;;;;;;;;;;1.10;99.90;;;;;;4769901;30;19921;-76
2022/03/10 00:19:19;;;;;;;;;;;1.20;99.90;;;;;;4770331;30;19922;-76
2022/03/10 00:21:45;;;;;;;;;;;1.20;99.90;;;;;;4770494;30;19968;-76
2022/03/10 00:24:10;;;;;;;;;;;1.20;99.90;;;;;;4770638;30;19922;-76
2022/03/10 00:26:37;;;;;;;;;;;1.20;99.90;;;;;;4769722;30;19937;-76
2022/03/10 00:29:03;;;;;;;;;;;1.20;99.90;;;;;;4769652;30;19988;-76
2022/03/10 00:31:28;;;;;;;;;;;1.20;99.90;;;;;;4770246;30;19922;-76
2022/03/10 00:33:53;;;;;;;;;;;1.20;99.90;;;;;;4770322;30;20038;-76
2022/03/10 00:36:19;;;;;;;;;;;1.20;99.90;;;;;;4770288;30;20404;-76
2022/03/10 00:38:44;;;;;;;;;;;1.20;99.90;;;;;;4770048;30;20003;-76
2022/03/10 00:41:10;;;;;;;;;;;1.20;99.90;;;;;;4770295;30;19922;-76
2022/03/10 00:43:35;;;;;;;;;;;1.20;99.90;;;;;;4769927;30;19952;-76
2022/03/10 00:46:02;;;;;;;;;;;1.20;99.90;;;;;;4769798;30;20410;-76
2022/03/10 00:48:27;;;;;;;;;;;1.10;99.90;;;;;;4769982;30;20273;-76
2022/03/10 00:50:53;;;;;;;;;;;1.10;99.90;;;;;;4769833;30;19928;-76
2022/03/10 00:53:18;;;;;;;;;;;1.10;99.90;;;;;;4769926;30;20056;-76
2022/03/10 00:55:44;;;;;;;;;;;1.00;99.90;;;;;;4769375;30;20016;-76
2022/03/10 00:58:09;;;;;;;;;;;0.90;99.90;;;;;;4769499;30;19921;-76
2022/03/10 01:00:35;;;;;;;;;;;0.90;99.90;;;;;;4769833;30;19925;-76
2022/03/10 01:03:00;;;;;;;;;;;0.80;99.90;;;;;;4769641;30;19928;-76
2022/03/10 01:05:26;;;;;;;;;;;0.80;99.90;;;;;;4769641;30;19975;-76
2022/03/10 01:07:51;;;;;;;;;;;0.70;99.90;;;;;;4769341;30;20283;-76
2022/03/10 01:10:17;;;;;;;;;;;0.80;99.90;;;;;;4769893;30;19952;-76
2022/03/10 01:12:45;;;;;;;;;;;0.80;99.90;;;;;;4769648;30;20473;-76
2022/03/10 01:15:11;;;;;;;;;;;0.80;99.90;;;;;;4769491;30;19921;-76
2022/03/10 01:17:37;;;;;;;;;;;0.80;99.90;;;;;;4768745;30;19929;-76
2022/03/10 01:20:03;;;;;;;;;;;0.80;99.90;;;;;;4769283;30;19944;-76
2022/03/10 01:22:28;;;;;;;;;;;0.80;99.90;;;;;;4769334;30;19921;-76
2022/03/10 01:24:54;;;;;;;;;;;0.80;99.90;;;;;;4769034;30;19938;-76
2022/03/10 01:27:19;;;;;;;;;;;0.70;99.90;;;;;;4769276;30;20309;-76
2022/03/10 01:29:45;;;;;;;;;;;0.70;99.90;;;;;;4769122;30;19922;-76
2022/03/10 01:32:11;;;;;;;;;;;0.60;99.90;;;;;;4769172;30;19970;-76
2022/03/10 01:34:36;;;;;;;;;;;0.50;99.90;;;;;;4768865;30;19976;-76
2022/03/10 01:37:02;;;;;;;;;;;0.40;99.90;;;;;;4768851;30;19968;-76
2022/03/10 01:39:27;;;;;;;;;;;0.30;99.90;;;;;;4768571;30;19987;-75
2022/03/10 01:41:53;;;;;;;;;;;0.20;99.90;;;;;;4769016;30;19925;-75
2022/03/10 01:44:20;;;;;;;;;;;0.20;99.90;;;;;;4768960;30;20570;-76
2022/03/10 01:46:46;;;;;;;;;;;0.10;99.90;;;;;;4753639;30;20398;-76
2022/03/10 01:49:11;;;;;;;;;;;0.20;99.90;;;;;;4769171;30;19928;-76
2022/03/10 01:51:37;;;;;;;;;;;0.10;99.90;;;;;;4768449;30;19965;-76
2022/03/10 01:54:03;;;;;;;;;;;0.20;99.90;;;;;;4768820;30;19961;-76
2022/03/10 01:56:30;;;;;;;;;;;0.20;99.90;;;;;;4768606;30;19928;-76
2022/03/10 01:58:56;;;;;;;;;;;0.30;99.90;;;;;;4768733;30;19992;-76
2022/03/10 02:01:21;;;;;;;;;;;0.30;99.90;;;;;;4768701;30;20361;-75
2022/03/10 02:03:47;;;;;;;;;;;0.30;99.90;;;;;;4754156;30;19928;-75
2022/03/10 02:06:13;;;;;;;;;;;0.40;99.90;;;;;;4768444;30;20395;-75
2022/03/10 02:11:23;;;;;;;;;;;0.50;99.90;;;;;;4768160;30;20014;-75
2022/03/10 02:13:49;;;;;;;;;;;0.50;99.90;;;;;;4768658;30;19973;-75
2022/03/10 02:18:59;;;;;;;;;;;0.40;99.90;;;;;;4768403;30;19922;-75
2022/03/10 02:21:25;;;;;;;;;;;0.30;99.90;;;;;;4768548;30;19922;-75
2022/03/10 02:23:51;;;;;;;;;;;0.30;99.90;;;;;;4767606;30;19967;-75
2022/03/10 02:26:16;;;;;;;;;;;0.20;99.90;;;;;;4767919;30;20393;-75
2022/03/10 02:28:42;;;;;;;;;;;0.30;99.90;;;;;;4767970;30;19973;-76
2022/03/10 02:31:08;;;;;;;;;;;0.30;99.90;;;;;;4768153;30;20301;-76
2022/03/10 02:33:34;;;;;;;;;;;0.30;99.90;;;;;;4768477;30;20336;-75
2022/03/10 02:36:00;;;;;;;;;;;0.20;99.90;;;;;;4767820;30;19922;-75
2022/03/10 02:38:25;;;;;;;;;;;0.20;99.90;;;;;;4768432;30;19983;-75
2022/03/10 02:40:51;;;;;;;;;;;0.20;99.90;;;;;;4767513;30;19922;-75
2022/03/10 02:43:17;;;;;;;;;;;0.20;99.90;;;;;;4768048;30;19921;-76
2022/03/10 02:45:43;;;;;;;;;;;0.20;99.90;;;;;;4767773;30;19930;-76
2022/03/10 02:48:09;;;;;;;;;;;0.20;99.90;;;;;;4768303;30;19976;-75
2022/03/10 02:50:34;;;;;;;;;;;0.20;99.90;;;;;;4767619;30;19928;-75
2022/03/10 02:53:00;;;;;;;;;;;0.20;99.90;;;;;;4767548;30;20382;-76
2022/03/10 02:55:25;;;;;;;;;;;0.10;99.90;;;;;;4768162;30;20287;-75
2022/03/10 02:57:51;;;;;;;;;;;0.10;99.90;;;;;;4767372;30;19926;-75
2022/03/10 03:00:17;;;;;;;;;;;0.20;99.90;;;;;;4767690;30;19922;-75
2022/03/10 03:02:43;;;;;;;;;;;0.20;99.90;;;;;;4768097;30;19922;-75
2022/03/10 03:05:09;;;;;;;;;;;0.20;99.90;;;;;;4752793;30;20031;-75
2022/03/10 03:07:35;;;;;;;;;;;0.30;99.90;;;;;;4767606;30;19921;-75
2022/03/10 03:10:01;;;;;;;;;;;0.40;99.90;;;;;;4768029;30;20020;-75
2022/03/10 03:12:26;;;;;;;;;;;0.40;99.90;;;;;;4767487;30;20351;-75
2022/03/10 03:14:52;;;;;;;;;;;0.40;99.90;;;;;;4767672;30;19922;-75
2022/03/10 03:17:17;;;;;;;;;;;0.40;99.90;;;;;;4767156;30;19926;-75
2022/03/10 03:19:43;;;;;;;;;;;0.30;99.90;;;;;;4767669;30;19970;-75
2022/03/10 03:22:08;;;;;;;;;;;0.30;99.90;;;;;;4767642;30;20300;-75
2022/03/10 03:24:34;;;;;;;;;;;0.40;99.90;;;;;;4753084;30;19922;-75
2022/03/10 03:26:59;;;;;;;;;;;0.30;99.90;;;;;;4767361;30;19948;-75
2022/03/10 03:29:25;;;;;;;;;;;0.40;99.90;;;;;;4767637;30;20008;-75
2022/03/10 03:31:50;;;;;;;;;;;0.50;99.90;;;;;;4767502;30;19921;-75
2022/03/10 03:34:16;;;;;;;;;;;0.50;99.90;;;;;;4767275;30;19922;-75
2022/03/10 03:36:42;;;;;;;;;;;0.50;99.90;;;;;;4752495;30;19925;-75
2022/03/10 03:39:07;;;;;;;;;;;0.50;99.90;;;;;;4767772;30;20005;-76
2022/03/10 03:41:33;;;;;;;;;;;0.40;99.90;;;;;;4767281;30;20000;-75
2022/03/10 03:43:59;;;;;;;;;;;0.40;99.90;;;;;;4767389;30;19922;-75
2022/03/10 03:46:24;;;;;;;;;;;0.30;99.90;;;;;;4767232;30;20371;-75
2022/03/10 03:48:50;;;;;;;;;;;0.20;99.90;;;;;;4767500;30;19921;-75
2022/03/10 03:51:15;;;;;;;;;;;0.20;99.90;;;;;;4767021;30;19983;-75
2022/03/10 03:53:41;;;;;;;;;;;0.20;99.90;;;;;;4767292;30;20026;-75
2022/03/10 03:56:06;;;;;;;;;;;0.20;99.90;;;;;;4767169;30;20026;-75
2022/03/10 03:58:32;;;;;;;;;;;0.10;99.90;;;;;;4767297;30;19922;-75
2022/03/10 04:00:57;;;;;;;;;;;0.10;99.90;;;;;;4767506;30;19961;-75
2022/03/10 04:03:23;;;;;;;;;;;-0.10;99.90;;;;;;4767552;30;19925;-75
2022/03/10 04:05:48;;;;;;;;;;;-0.10;99.90;;;;;;4769527;30;19933;-75
2022/03/10 04:08:14;;;;;;;;;;;-0.20;99.90;;;;;;4770273;30;20017;-75
2022/03/10 04:10:40;;;;;;;;;;;-0.20;99.90;;;;;;4770409;30;20406;-75
2022/03/10 04:13:05;;;;;;;;;;;-0.20;99.90;;;;;;4770355;30;19925;-75
2022/03/10 04:15:32;;;;;;;;;;;-0.20;99.90;;;;;;4770786;30;19926;-75
2022/03/10 04:17:58;;;;;;;;;;;-0.20;99.90;;;;;;4770468;30;20065;-75
2022/03/10 04:20:24;;;;;;;;;;;-0.10;99.90;;;;;;4769944;30;20421;-75
2022/03/10 04:22:49;;;;;;;;;;;0.00;99.90;;;;;;4770331;30;19928;-75
2022/03/10 04:25:15;;;;;;;;;;;0.10;99.90;;;;;;4769832;30;19952;-75
2022/03/10 04:27:40;;;;;;;;;;;0.20;99.90;;;;;;4770031;30;20005;-75
2022/03/10 04:30:06;;;;;;;;;;;0.20;99.90;;;;;;4770699;30;20385;-75
2022/03/10 04:32:39;;;;;;;;;;;0.10;99.90;;;;;;4770458;30;20355;-75
2022/03/10 04:35:04;;;;;;;;;;;-0.10;99.90;;;;;;4770230;30;19983;-75
2022/03/10 04:37:30;;;;;;;;;;;-0.20;99.90;;;;;;4769918;30;19925;-75
2022/03/10 04:39:55;;;;;;;;;;;-0.30;99.90;;;;;;4770230;30;19930;-75
2022/03/10 04:42:21;;;;;;;;;;;-0.30;99.90;;;;;;4769639;30;19922;-75
2022/03/10 04:44:46;;;;;;;;;;;-0.30;99.90;;;;;;4769914;30;19949;-75
2022/03/10 04:47:12;;;;;;;;;;;-0.20;99.90;;;;;;4769571;30;20009;-75
2022/03/10 04:49:37;;;;;;;;;;;-0.20;99.90;;;;;;4769829;30;19921;-75
2022/03/10 04:52:03;;;;;;;;;;;-0.20;99.90;;;;;;4769979;30;19922;-75
2022/03/10 04:54:28;;;;;;;;;;;-0.20;99.90;;;;;;4769962;30;19978;-75
2022/03/10 04:56:54;;;;;;;;;;;-0.30;99.90;;;;;;4769135;30;19991;-75
2022/03/10 04:59:20;;;;;;;;;;;-0.30;99.90;;;;;;4769504;30;19928;-75
2022/03/10 05:01:46;;;;;;;;;;;-0.40;99.90;;;;;;4769955;30;19926;-75
2022/03/10 05:04:11;;;;;;;;;;;-0.40;99.90;;;;;;4769596;30;20027;-75
2022/03/10 05:06:37;;;;;;;;;;;-0.40;99.90;;;;;;4769246;30;19926;-75
2022/03/10 05:09:02;;;;;;;;;;;-0.40;99.90;;;;;;4769585;30;19928;-75
2022/03/10 05:11:27;;;;;;;;;;;-0.30;99.90;;;;;;4769461;30;19922;-75
2022/03/10 05:13:53;;;;;;;;;;;-0.30;99.90;;;;;;4769424;30;19975;-75
2022/03/10 05:16:18;;;;;;;;;;;-0.30;99.90;;;;;;4768579;30;19928;-75
2022/03/10 05:18:45;;;;;;;;;;;-0.20;99.90;;;;;;4769686;30;19922;-76
2022/03/10 05:21:10;;;;;;;;;;;-0.20;99.90;;;;;;4769609;30;19995;-75
2022/03/10 05:23:36;;;;;;;;;;;-0.20;99.90;;;;;;4769173;30;19925;-75
2022/03/10 05:26:01;;;;;;;;;;;-0.20;99.90;;;;;;4768496;30;19926;-75
2022/03/10 05:28:27;;;;;;;;;;;-0.20;99.90;;;;;;4769443;30;19922;-75
2022/03/10 05:30:52;;;;;;;;;;;-0.30;99.90;;;;;;4769025;30;19933;-75
2022/03/10 05:33:17;;;;;;;;;;;-0.20;99.90;;;;;;4768727;30;19921;-75
2022/03/10 05:35:43;;;;;;;;;;;-0.30;99.90;;;;;;4768812;30;19922;-75
2022/03/10 05:38:08;;;;;;;;;;;-0.30;99.90;;;;;;4768991;30;19983;-75
2022/03/10 05:40:34;;;;;;;;;;;-0.30;99.90;;;;;;4768912;30;19928;-75
2022/03/10 05:42:59;;;;;;;;;;;-0.30;99.90;;;;;;4768919;30;19934;-75
2022/03/10 05:45:25;;;;;;;;;;;-0.40;99.90;;;;;;4768793;30;19929;-75
2022/03/10 05:47:52;;;;;;;;;;;-0.40;99.90;;;;;;4768207;30;19922;-75
2022/03/10 05:50:17;;;;;;;;;;;-0.40;99.90;;;;;;4768384;30;19948;-75
2022/03/10 05:52:45;;;;;;;;;;;-0.40;99.90;;;;;;4768633;30;19921;-75
2022/03/10 05:55:11;;;;;;;;;;;-0.30;99.90;;;;;;4768977;30;20303;-75
2022/03/10 05:57:37;;;;;;;;;;;-0.30;99.90;;;;;;4768176;30;19926;-75
2022/03/10 06:00:04;;;;;;;;;;;-0.20;99.90;;;;;;4768813;30;19988;-75
2022/03/10 06:02:29;;;;;;;;;;;-0.20;99.90;;;;;;4768537;30;19922;-75
2022/03/10 06:04:58;;;;;;;;;;;-0.10;99.90;;;;;;4768653;30;19975;-75
2022/03/10 06:07:23;;;;;;;;;;;-0.10;99.90;;;;;;4768047;30;20004;-75
2022/03/10 06:09:49;;;;;;;;;;;0.00;99.90;;;;;;4768231;30;20021;-75
2022/03/10 06:12:19;;;;;;;;;;;0.00;99.90;;;;;;4753458;30;20633;-75
2022/03/10 06:14:44;;;;;;;;;;;0.00;99.90;;;;;;4768321;30;19922;-75
2022/03/10 06:17:10;;;;;;;;;;;-0.10;99.90;;;;;;4768105;30;19951;-75
2022/03/10 06:19:35;;;;;;;;;;;-0.10;99.90;;;;;;4768580;30;19976;-75
2022/03/10 06:22:00;;;;;;;;;;;-0.10;99.90;;;;;;4767834;30;19921;-75
2022/03/10 06:24:26;;;;;;;;;;;0.00;99.90;;;;;;4768182;30;19922;-75
2022/03/10 06:26:51;;;;;;;;;;;0.20;99.90;;;;;;4767411;30;19933;-75
2022/03/10 06:29:17;;;;;;;;;;;0.30;99.90;;;;;;4768047;30;20357;-77
2022/03/10 06:31:42;;;;;;;;;;;0.40;99.90;;;;;;4753289;30;19929;-77
2022/03/10 06:34:08;;;;;;;;;;;0.40;99.90;;;;;;4768126;30;19956;-77
2022/03/10 06:36:33;;;;;;;;;;;0.40;99.90;;;;;;4767885;30;19921;-77
2022/03/10 06:38:59;;;;;;;;;;;0.50;99.90;;;;;;4768289;30;19971;-77
2022/03/10 06:41:24;;;;;;;;;;;0.50;99.90;;;;;;4767528;30;19929;-77
2022/03/10 06:43:50;;;;;;;;;;;0.50;99.90;;;;;;4768203;30;20433;-77
2022/03/10 06:46:15;;;;;;;;;;;0.60;99.90;;;;;;4767642;30;19930;-77
2022/03/10 06:48:41;;;;;;;;;;;0.70;99.90;;;;;;4767882;30;19928;-77
2022/03/10 06:51:07;;;;;;;;;;;0.80;99.90;;;;;;4768052;30;19922;-77
2022/03/10 06:53:32;;;;;;;;;;;1.00;99.90;;;;;;4768138;30;19929;-77
2022/03/10 06:55:58;;;;;;;;;;;1.10;99.90;;;;;;4767912;30;20354;-77
2022/03/10 06:58:24;;;;;;;;;;;1.10;99.90;;;;;;4767677;30;19921;-77
2022/03/10 07:00:49;;;;;;;;;;;1.20;99.90;;;;;;4768016;30;20362;-77
2022/03/10 07:03:15;;;;;;;;;;;1.20;99.90;;;;;;4767797;30;19922;-77
2022/03/10 07:05:40;;;;;;;;;;;1.20;99.90;;;;;;4767395;30;19936;-77
2022/03/10 07:08:07;;;;;;;;;;;1.20;99.90;;;;;;4767926;30;19973;-77
2022/03/10 07:10:32;;;;;;;;;;;1.20;99.90;;;;;;4767866;30;20357;-77
2022/03/10 07:12:58;;;;;;;;;;;1.30;99.90;;;;;;4768055;30;19976;-77
2022/03/10 07:15:23;;;;;;;;;;;1.30;99.90;;;;;;4767702;30;19921;-77
2022/03/10 07:17:49;;;;;;;;;;;1.40;99.90;;;;;;4767111;30;19945;-77
2022/03/10 07:20:15;;;;;;;;;;;1.40;99.90;;;;;;4767505;30;20351;-75
2022/03/10 07:22:40;;;;;;;;;;;1.40;99.90;;;;;;4767453;30;19922;-75
2022/03/10 07:25:08;;;;;;;;;;;1.50;99.90;;;;;;4767322;30;19960;-75
2022/03/10 07:27:34;;;;;;;;;;;1.60;99.90;;;;;;4767258;30;19948;-75
2022/03/10 07:30:00;;;;;;;;;;;1.60;99.90;;;;;;4767640;30;19921;-75
2022/03/10 07:32:26;;;;;;;;;;;1.70;99.90;;;;;;4767387;30;19932;-75
2022/03/10 07:34:51;;;;;;;;;;;1.70;99.90;;;;;;4767350;30;19922;-75
2022/03/10 07:37:17;;;;;;;;;;;1.80;99.90;;;;;;4767242;30;20400;-76
2022/03/10 07:39:42;;;;;;;;;;;1.90;99.90;;;;;;4769769;30;19928;-76
2022/03/10 07:42:08;;;;;;;;;;;1.90;99.90;;;;;;4771019;30;19922;-76
2022/03/10 07:44:34;;;;;;;;;;;2.10;99.90;;;;;;4770937;30;19929;-76
2022/03/10 07:46:59;;;;;;;;;;;2.20;99.90;;;;;;4770623;30;19932;-76
2022/03/10 07:49:25;;;;;;;;;;;2.30;99.90;;;;;;4770640;30;20382;-76
2022/03/10 07:51:50;;;;;;;;;;;2.40;99.90;;;;;;4770542;30;19929;-76
2022/03/10 07:54:16;;;;;;;;;;;2.50;99.90;;;;;;4770730;30;19932;-76
2022/03/10 07:56:41;;;;;;;;;;;2.60;99.90;;;;;;4770830;30;19991;-76
2022/03/10 07:59:07;;;;;;;;;;;2.70;99.90;;;;;;4770913;30;19921;-77
2022/03/10 08:01:32;;;;;;;;;;;2.90;99.90;;;;;;4770928;30;19922;-77
2022/03/10 08:03:58;;;;;;;;;;;3.00;99.90;;;;;;4770554;30;19929;-77
2022/03/10 08:06:26;;;;;;;;;;;3.20;99.90;;;;;;4770382;30;19933;-77
2022/03/10 08:08:51;;;;;;;;;;;3.30;99.90;;;;;;4769975;30;20412;-77
2022/03/10 08:11:16;;;;;;;;;;;3.50;99.90;;;;;;4770719;30;19922;-77
2022/03/10 08:13:42;;;;;;;;;;;3.60;99.90;;;;;;4770679;30;20470;-77
2022/03/10 08:16:07;;;;;;;;;;;3.90;99.90;;;;;;4770547;30;19922;-78
2022/03/10 08:18:33;;;;;;;;;;;4.00;99.90;;;;;;4770342;30;19922;-78
2022/03/10 08:20:59;;;;;;;;;;;4.20;99.90;;;;;;4770437;30;19922;-78
2022/03/10 08:23:24;;;;;;;;;;;4.40;99.90;;;;;;4770345;30;19926;-78
2022/03/10 08:25:50;;;;;;;;;;;4.60;99.90;;;;;;4769731;30;20252;-79
2022/03/10 08:28:16;;;;;;;;;;;4.80;99.90;;;;;;4770302;30;20028;-78
2022/03/10 08:30:42;;;;;;;;;;;5.00;99.90;;;;;;4770154;30;20259;-79
2022/03/10 08:33:08;;;;;;;;;;;5.20;99.90;;;;;;4770190;30;19952;-79
2022/03/10 08:35:33;;;;;;;;;;;5.40;99.90;;;;;;4770092;30;19929;-79
2022/03/10 08:37:59;;;;;;;;;;;5.50;99.90;;;;;;4769802;30;19941;-79
2022/03/10 08:40:24;;;;;;;;;;;5.80;99.90;;;;;;4769811;30;19976;-79
2022/03/10 08:42:50;;;;;;;;;;;5.90;99.90;;;;;;4769626;30;20020;-79
2022/03/10 08:45:16;;;;;;;;;;;6.00;99.90;;;;;;4770300;30;19925;-78
2022/03/10 08:47:42;;;;;;;;;;;6.10;99.90;;;;;;4769729;30;20408;-78
2022/03/10 08:50:09;;;;;;;;;;;6.30;99.90;;;;;;4769192;30;20012;-78
2022/03/10 08:52:34;;;;;;;;;;;6.40;99.90;;;;;;4769834;30;20001;-78
2022/03/10 08:55:00;;;;;;;;;;;6.60;99.90;;;;;;4769741;30;20024;-78
2022/03/10 08:57:26;;;;;;;;;;;6.70;99.90;;;;;;4769328;30;19983;-78
2022/03/10 08:59:52;;;;;;;;;;;6.80;99.90;;;;;;4769901;30;19950;-78
2022/03/10 09:02:17;;;;;;;;;;;6.90;99.90;;;;;;4769695;30;19926;-78
2022/03/10 09:04:43;;;;;;;;;;;7.00;99.90;;;;;;4769941;30;20326;-77
2022/03/10 09:07:08;;;;;;;;;;;7.10;99.90;;;;;;4769316;30;19979;-78
2022/03/10 09:09:34;;;;;;;;;;;7.20;99.90;;;;;;4769652;30;19922;-77
2022/03/10 09:11:59;;;;;;;;;;;7.30;99.90;;;;;;4754756;30;20493;-77
2022/03/10 09:14:25;;;;;;;;;;;7.50;99.90;;;;;;4769772;30;19974;-77
2022/03/10 09:16:54;;;;;;;;;;;7.60;99.90;;;;;;4769249;30;20366;-77
2022/03/10 09:19:20;;;;;;;;;;;7.70;99.90;;;;;;4769395;30;20321;-77
2022/03/10 09:21:45;;;;;;;;;;;7.80;99.90;;;;;;4769562;30;19925;-77
2022/03/10 09:24:11;;;;;;;;;;;8.00;99.90;;;;;;4769305;30;19922;-77
2022/03/10 09:26:39;;;;;;;;;;;8.10;99.90;;;;;;4769070;30;19930;-78
2022/03/10 09:29:05;;;;;;;;;;;8.20;99.90;;;;;;4769322;30;19921;-78
2022/03/10 09:31:31;;;;;;;;;;;8.30;99.90;;;;;;4769146;30;19929;-78
2022/03/10 09:33:57;;;;;;;;;;;8.50;99.90;;;;;;4769105;30;19925;-77
2022/03/10 09:36:23;;;;;;;;;;;8.70;99.30;;;;;;4768883;30;20386;-78
2022/03/10 09:38:48;;;;;;;;;;;8.80;98.70;;;;;;4769208;30;19928;-78
2022/03/10 09:41:16;;;;;;;;;;;8.90;97.30;;;;;;4768931;30;19979;-78
2022/03/10 09:43:41;;;;;;;;;;;9.10;99.80;;;;;;4769092;30;19922;-78
2022/03/10 09:46:08;;;;;;;;;;;9.30;98.30;;;;;;4768567;30;20287;-78
2022/03/10 09:48:35;;;;;;;;;;;9.50;97.10;;;;;;4768891;30;20374;-78
2022/03/10 09:51:01;;;;;;;;;;;9.70;91.50;;;;;;4768680;30;19928;-78
2022/03/10 09:53:27;;;;;;;;;;;9.80;91.20;;;;;;4769308;30;19926;-78
2022/03/10 09:55:53;;;;;;;;;;;10.00;92.40;;;;;;4768740;30;19921;-78
2022/03/10 09:58:19;;;;;;;;;;;10.10;81.10;;;;;;4768992;30;19926;-78
2022/03/10 10:00:44;;;;;;;;;;;10.30;90.50;;;;;;4768977;30;19922;-78
2022/03/10 10:03:10;;;;;;;;;;;10.50;82.60;;;;;;4768013;30;20457;-78
2022/03/10 10:05:39;;;;;;;;;;;10.60;76.10;;;;;;4768553;30;19932;-78
2022/03/10 10:08:14;;;;;;;;;;;10.90;75.10;;;;;;4768481;30;19922;-79
2022/03/10 10:10:44;;;;;;;;;;;11.00;76.20;;;;;;4768502;30;19922;-78
2022/03/10 10:13:10;;;;;;;;;;;11.20;73.90;;;;;;4768852;30;20389;-78
2022/03/10 10:15:36;;;;;;;;;;;11.40;71.90;;;;;;4768446;30;19942;-78
2022/03/10 10:18:02;;;;;;;;;;;11.50;66.70;;;;;;4768698;30;19922;-78
2022/03/10 10:20:32;;;;;;;;;;;11.60;63.90;;;;;;4768424;30;19922;-78
2022/03/10 10:23:14;;;;;;;;;;;11.60;61.60;;;;;;4769448;30;19922;-79
2022/03/10 10:25:47;;;;;;;;;;;11.60;60.30;;;;;;4768898;30;19957;-79
2022/03/10 10:28:23;;;;;;;;;;;11.80;57.90;;;;;;4769155;30;19922;-79
2022/03/10 10:30:52;;;;;;;;;;;11.90;59.50;;;;;;4753849;30;19965;-79
2022/03/10 10:33:18;;;;;;;;;;;12.00;60.60;;;;;;4768854;30;20341;-79
2022/03/10 10:35:45;;;;;;;;;;;12.00;58.20;;;;;;4768878;30;19990;-79
2022/03/10 10:38:12;;;;;;;;;;;12.20;58.10;;;;;;4768785;30;20369;-79
2022/03/10 10:40:38;;;;;;;;;;;12.30;57.80;;;;;;4768629;30;20328;-78
2022/03/10 10:43:06;;;;;;;;;;;12.40;55.50;;;;;;4768803;30;19975;-78
2022/03/10 10:45:33;;;;;;;;;;;12.50;55.50;;;;;;4769362;30;19972;-78
2022/03/10 10:48:00;;;;;;;;;;;12.60;57.30;;;;;;4768906;30;20008;-78
2022/03/10 10:50:27;;;;;;;;;;;12.70;54.80;;;;;;4769587;30;19944;-78
2022/03/10 10:52:53;;;;;;;;;;;12.80;54.80;;;;;;4769424;30;19922;-78
2022/03/10 10:55:18;;;;;;;;;;;12.90;54.90;;;;;;4768831;30;19979;-80
2022/03/10 10:57:44;;;;;;;;;;;13.10;55.70;;;;;;4756093;30;19929;-79
2022/03/10 11:00:11;;;;;;;;;;;13.30;53.00;;;;;;4756543;30;19965;-79
2022/03/10 11:02:40;;;;;;;;;;;13.50;53.80;;;;;;4771734;30;19926;-79
2022/03/10 11:05:07;;;;;;;;;;;13.60;51.60;;;;;;4771324;30;20416;-79
2022/03/10 11:07:32;;;;;;;;;;;13.70;51.30;;;;;;4770782;30;19926;-79
2022/03/10 11:09:58;;;;;;;;;;;13.80;51.90;;;;;;4771332;30;20305;-79
2022/03/10 11:12:23;;;;;;;;;;;13.90;50.60;;;;;;4754960;30;19928;-78
2022/03/10 11:14:49;;;;;;;;;;;14.00;51.70;;;;;;4769031;30;19987;-79
2022/03/10 11:17:16;;;;;;;;;;;14.00;49.50;;;;;;4770734;30;19928;-79
2022/03/10 11:19:42;;;;;;;;;;;14.10;48.50;;;;;;4770308;30;20016;-79
2022/03/10 11:22:11;;;;;;;;;;;14.10;47.60;;;;;;4770782;30;19928;-79
2022/03/10 11:24:40;;;;;;;;;;;14.10;49.20;;;;;;4769611;30;19926;-79
2022/03/10 11:27:17;;;;;;;;;;;14.20;51.80;;;;;;4769835;30;19925;-79
2022/03/10 11:29:45;;;;;;;;;;;14.30;48.80;;;;;;4769332;30;19926;-80
2022/03/10 11:32:11;;;;;;;;;;;14.40;48.10;;;;;;4770525;30;19929;-79
2022/03/10 11:34:47;;;;;;;;;;;14.50;47.30;;;;;;4755258;30;20462;-79
2022/03/10 11:37:32;;;;;;;;;;;14.60;49.00;;;;;;4769427;30;20237;-79
2022/03/10 11:39:58;;;;;;;;;;;14.80;50.00;;;;;;4770670;30;20429;-79
2022/03/10 11:42:25;;;;;;;;;;;14.90;49.00;;;;;;4770829;30;19976;-80
2022/03/10 11:45:05;;;;;;;;;;;14.90;47.00;;;;;;4770869;30;19921;-79
2022/03/10 11:47:30;;;;;;;;;;;15.00;48.30;;;;;;4770400;30;19925;-79
2022/03/10 11:49:56;;;;;;;;;;;15.10;48.20;;;;;;4770420;30;20423;-79
2022/03/10 11:52:29;;;;;;;;;;;15.20;47.50;;;;;;4772803;30;20352;-79
2022/03/10 11:55:03;;;;;;;;;;;15.30;48.70;;;;;;4756999;30;20377;-79
2022/03/10 11:57:28;;;;;;;;;;;15.40;48.50;;;;;;4770321;30;20322;-80
2022/03/10 11:59:54;;;;;;;;;;;15.50;47.90;;;;;;4771014;30;19922;-79
2022/03/10 12:02:30;;;;;;;;;;;15.60;45.70;;;;;;4770429;30;19933;-80
2022/03/10 12:04:56;;;;;;;;;;;15.70;47.10;;;;;;4770722;30;20004;-80
2022/03/10 12:07:26;;;;;;;;;;;15.80;44.20;;;;;;4772662;30;19926;-79
2022/03/10 12:10:03;;;;;;;;;;;15.90;45.00;;;;;;4772193;30;19922;-80
2022/03/10 12:12:28;;;;;;;;;;;15.90;44.10;;;;;;4771126;30;19922;-80
2022/03/10 12:14:56;;;;;;;;;;;16.10;46.50;;;;;;4769928;30;19947;-80
2022/03/10 12:17:40;;;;;;;;;;;16.20;47.00;;;;;;4771577;30;19934;-80
2022/03/10 12:20:23;;;;;;;;;;;16.40;43.40;;;;;;4771047;30;19926;-80
2022/03/10 12:23:03;;;;;;;;;;;16.40;42.90;;;;;;4771365;30;20012;-79
2022/03/10 12:25:30;;;;;;;;;;;16.50;45.40;;;;;;4771270;30;19921;-80
2022/03/10 12:27:56;;;;;;;;;;;16.60;43.30;;;;;;4773899;30;19944;-79
2022/03/10 12:30:24;;;;;;;;;;;16.80;43.00;;;;;;4774076;30;19957;-79
2022/03/10 12:32:51;;;;;;;;;;;16.80;42.80;;;;;;4774319;30;20005;-80
2022/03/10 12:35:24;;;;;;;;;;;17.00;43.10;;;;;;4772888;30;19926;-79
2022/03/10 12:37:50;;;;;;;;;;;17.20;42.00;;;;;;4772687;30;19922;-79
2022/03/10 12:40:17;;;;;;;;;;;17.30;41.90;;;;;;4774011;30;20416;-79
2022/03/10 12:42:44;;;;;;;;;;;17.40;40.70;;;;;;4772987;30;19961;-79
2022/03/10 12:45:09;;;;;;;;;;;17.50;42.80;;;;;;4773544;30;19921;-79
2022/03/10 12:47:36;;;;;;;;;;;17.60;41.50;;;;;;4772429;30;19925;-79
2022/03/10 12:50:02;;;;;;;;;;;17.50;40.80;;;;;;4773629;30;19969;-79
2022/03/10 12:52:27;;;;;;;;;;;17.50;40.40;;;;;;4773359;30;20283;-79
2022/03/10 12:54:56;;;;;;;;;;;17.60;41.50;;;;;;4772965;30;20389;-79
2022/03/10 12:57:21;;;;;;;;;;;17.80;41.30;;;;;;4772052;30;19980;-79
2022/03/10 12:59:48;;;;;;;;;;;17.90;40.40;;;;;;4774074;30;20016;-79
2022/03/10 13:02:17;;;;;;;;;;;18.00;41.40;;;;;;4772952;30;20063;-79
2022/03/10 13:04:57;;;;;;;;;;;18.20;41.10;;;;;;4774189;30;20013;-79
2022/03/10 13:07:30;;;;;;;;;;;18.40;40.50;;;;;;4774140;30;19933;-80
2022/03/10 13:10:00;;;;;;;;;;;18.40;39.70;;;;;;4773756;30;19921;-80
2022/03/10 13:12:25;;;;;;;;;;;18.40;38.20;;;;;;4773870;30;19922;-80
2022/03/10 13:14:50;;;;;;;;;;;18.40;38.70;;;;;;4774181;30;20424;-81
2022/03/10 13:17:16;;;;;;;;;;;18.60;38.90;;;;;;4774565;30;19932;-81
2022/03/10 13:19:41;;;;;;;;;;;18.70;40.40;;;;;;4773260;30;19926;-79
2022/03/10 13:22:07;;;;;;;;;;;18.70;38.70;;;;;;4773259;30;20016;-79
2022/03/10 13:24:33;;;;;;;;;;;18.90;38.70;;;;;;4773615;30;19973;-80
2022/03/10 13:27:02;;;;;;;;;;;19.00;37.60;;;;;;4774194;30;19926;-80
2022/03/10 13:29:27;;;;;;;;;;;19.20;37.50;;;;;;4772790;30;20245;-80
2022/03/10 13:31:53;;;;;;;;;;;19.20;37.40;;;;;;4774075;30;20021;-80
2022/03/10 13:34:19;;;;;;;;;;;19.20;38.10;;;;;;4773537;30;19932;-79
2022/03/10 13:36:46;;;;;;;;;;;19.30;38.10;;;;;;4773651;30;19922;-80
2022/03/10 13:39:11;;;;;;;;;;;19.30;35.70;;;;;;4773729;30;19921;-80
2022/03/10 13:41:37;;;;;;;;;;;19.40;37.40;;;;;;4773137;30;19921;-80
2022/03/10 13:44:15;;;;;;;;;;;19.70;35.60;;;;;;4773381;30;19922;-80
2022/03/10 13:46:40;;;;;;;;;;;19.80;35.80;;;;;;4758723;30;20004;-80
2022/03/10 13:49:22;;;;;;;;;;;19.90;37.10;;;;;;4773058;30;19977;-80
2022/03/10 13:51:48;;;;;;;;;;;20.00;36.50;;;;;;4758443;30;20061;-80
2022/03/10 13:54:15;;;;;;;;;;;19.80;33.50;;;;;;4773326;30;19962;-80
2022/03/10 13:56:42;;;;;;;;;;;19.80;34.30;;;;;;4772894;30;19921;-80
2022/03/10 13:59:09;;;;;;;;;;;19.80;33.40;;;;;;4773175;30;19922;-79
2022/03/10 14:01:36;;;;;;;;;;;19.80;33.60;;;;;;4773237;30;20267;-80
2022/03/10 14:04:07;;;;;;;;;;;19.70;34.40;;;;;;4773951;30;19922;-80
2022/03/10 14:06:40;;;;;;;;;;;19.70;36.00;;;;;;4772854;30;19925;-79
2022/03/10 14:09:14;;;;;;;;;;;19.60;36.00;;;;;;4774463;30;19922;-80
2022/03/10 14:11:40;;;;;;;;;;;19.60;35.40;;;;;;4773075;30;20013;-80
2022/03/10 14:14:05;;;;;;;;;;;19.70;35.20;;;;;;4773023;30;20017;-79
2022/03/10 14:16:31;;;;;;;;;;;19.90;34.90;;;;;;4772761;30;19922;-81
2022/03/10 14:18:57;;;;;;;;;;;19.80;33.00;;;;;;4772601;30;20004;-81
2022/03/10 14:21:22;;;;;;;;;;;19.80;32.80;;;;;;4774002;30;19968;-80
2022/03/10 14:23:55;;;;;;;;;;;19.70;33.40;;;;;;4772940;30;19982;-80
2022/03/10 14:26:21;;;;;;;;;;;19.60;34.00;;;;;;4758156;30;20351;-81